Flight NumberIRA9001 Date14.02.2018
Departure AirportUUEE Arrival AirportOIIE
Departure Time7.01Arrival Time10.07
Pilot In CommandMohammad HajiAmini Block Time3.10 Hours
Pilot Rating100 % AircraftEI-XLH [ 747-400ER ]


Distance1,358.00 Nm. Passengers624
Fuel Used28,218 Kg. Cargo3529 Kg
Expense Details Income Details
Fuel Cost35,197 v$Ticket Sales156,000 v$
Pilot Salary22,480 v$ Cargo income15,443.00 v$
Crew Salary3,120 v$ Bonus24,978 v$
Gross Profit127,388 v$ ( 3,184,700 v$ )

Client Versionv2.2.0.rc3 Max Simrate1
Flight Critique Pilot CommentsOIIE 141500Z 33016KT 9999 FEW040 11/01 Q1018